Date,TemperatureHighF,TemperatureAvgF,TemperatureLowF,DewpointHighF,DewpointAvgF,DewpointLowF,HumidityHigh,HumidityAvg,HumidityLow,PressureMaxIn,PressureMinIn,WindSpeedMaxMPH,WindSpeedAvgMPH,GustSpeedMaxMPH,PrecipitationSumIn
2013-1-1,67,56,48,-100,-100,-100,0,0,100,30.19,29.91,0,-999,0,0.00
2013-1-2,48,45,43,-100,-100,-100,0,0,100,30.30,30.16,0,-999,0,0.00
2013-1-3,54,45,41,-100,-100,-100,0,0,100,30.43,30.29,0,-999,0,0.00
2013-1-4,48,46,43,-100,-100,-100,0,0,100,30.52,30.35,0,-999,0,0.00
2013-1-5,47,45,43,-100,-100,-100,0,0,100,30.39,30.26,0,-999,0,0.00
2013-1-6,57,49,44,-100,-100,-100,0,0,100,30.34,30.25,0,-999,0,0.00
2013-1-7,59,49,41,-100,-100,-100,0,0,100,30.34,30.16,0,-999,0,0.00
2013-1-8,63,57,51,-100,-100,-100,0,0,100,30.14,30.00,0,-999,0,0.00
2013-1-9,68,64,61,-100,-100,-100,0,0,100,30.14,29.95,0,-999,0,0.00
2013-1-10,65,62,57,-100,-100,-100,0,0,100,30.11,29.97,0,-999,0,0.00
2013-1-11,72,62,49,-100,-100,-100,0,0,100,30.09,29.96,0,-999,0,0.00
2013-1-12,75,72,70,-100,-100,-100,0,0,100,29.99,29.83,0,-999,0,0.00
2013-1-13,73,58,46,-100,-100,-100,0,0,100,30.14,29.75,0,-999,0,0.00
2013-1-14,47,41,38,-100,-100,-100,0,0,100,30.21,30.08,0,-999,0,0.00
2013-1-15,41,38,35,-100,-100,-100,0,0,100,30.13,30.02,0,-999,0,0.00
2013-1-16,44,38,35,-100,-100,-100,0,0,100,30.26,30.11,0,-999,0,0.00
2013-1-17,59,48,37,-100,-100,-100,0,0,100,30.48,30.25,0,-999,0,0.00
2013-1-18,61,48,41,-100,-100,-100,0,0,100,30.57,30.41,0,-999,0,0.00
2013-1-19,62,49,36,-100,-100,-100,0,0,100,30.41,30.24,0,-999,0,0.00
2013-1-20,68,54,41,-100,-100,-100,0,0,100,30.30,30.15,0,-999,0,0.00
2013-1-21,69,55,46,-100,-100,-100,0,0,100,30.26,30.18,0,-999,0,0.00
2013-1-22,66,52,42,-100,-100,-100,0,0,100,30.38,30.25,0,-999,0,0.00
2013-1-23,70,58,46,-100,-100,-100,0,0,100,30.40,30.29,0,-999,0,0.00
2013-1-24,71,62,54,-100,-100,-100,0,0,100,30.34,30.22,0,-999,0,0.00
2013-1-25,73,64,59,-100,-100,-100,0,0,100,30.24,30.14,0,-999,0,0.00
2013-1-26,75,65,57,-100,-100,-100,0,0,100,30.24,30.16,0,-999,0,0.00
2013-1-27,74,66,57,-100,-100,-100,0,0,100,30.22,30.14,0,-999,0,0.00
2013-1-28,74,69,64,-100,-100,-100,0,0,100,30.20,30.07,0,-999,0,0.00
2013-1-29,76,72,69,-100,-100,-100,0,0,100,30.07,29.71,0,-999,0,0.00
2013-1-30,72,57,47,-100,-100,-100,0,0,100,30.23,29.72,0,-999,0,0.00
2013-1-31,60,55,43,-100,-100,-100,0,0,100,30.35,30.27,0,-999,0,0.00
2013-2-1,68,56,48,-100,-100,-100,0,0,100,30.42,30.31,0,-999,0,0.00
2013-2-2,68,58,47,-100,-100,-100,0,0,100,30.31,30.20,0,-999,0,0.00
2013-2-3,71,59,52,-100,-100,-100,0,0,100,30.34,30.13,0,-999,0,0.00
2013-2-4,67,59,51,-100,-100,-100,0,0,100,30.12,29.91,0,-999,0,0.00
2013-2-5,71,64,60,-100,-100,-100,0,0,100,30.04,29.93,0,-999,0,0.00
2013-2-6,65,61,57,-100,-100,-100,0,0,100,30.12,29.92,0,-999,0,0.00
2013-2-7,69,62,58,-100,-100,-100,0,0,100,30.00,29.89,0,-999,0,0.00
2013-2-8,64,60,53,-100,-100,-100,0,0,100,30.19,30.00,0,-999,0,0.00
2013-2-9,66,59,50,-100,-100,-100,0,0,100,30.19,29.97,0,-999,0,0.00
2013-2-10,76,68,63,-100,-100,-100,0,0,100,29.99,29.85,0,-999,0,0.00
2013-2-11,64,56,52,-100,-100,-100,0,0,100,30.13,29.97,0,-999,0,0.00
2013-2-12,70,58,54,-100,-100,-100,0,0,100,30.03,29.75,0,-999,0,0.00
2013-2-13,58,52,47,-100,-100,-100,0,0,100,30.11,29.94,0,-999,0,0.00
2013-2-14,63,51,39,-100,-100,-100,0,0,100,30.19,30.08,0,-999,0,0.00
2013-2-15,66,54,44,-100,-100,-100,0,0,100,30.29,30.12,0,-999,0,0.00
2013-2-16,55,48,39,-100,-100,-100,0,0,100,30.42,30.27,0,-999,0,0.00
2013-2-17,65,52,41,-100,-100,-100,0,0,100,30.31,30.16,0,-999,0,0.00
2013-2-18,69,63,54,-100,-100,-100,0,0,100,30.16,29.91,0,-999,0,0.00
2013-2-19,65,57,49,-100,-100,-100,0,0,100,30.27,30.03,0,-999,0,0.00
2013-2-20,59,54,48,-100,-100,-100,0,0,100,30.23,29.97,0,-999,0,0.00
2013-2-21,72,64,55,-100,-100,-100,0,0,100,29.91,29.71,0,-999,0,0.00
2013-2-22,66,61,56,-100,-100,-100,0,0,100,29.99,29.87,0,-999,0,0.00
2013-2-23,66,58,50,-100,-100,-100,0,0,100,30.00,29.90,0,-999,0,0.00
2013-2-24,69,58,47,-100,-100,-100,0,0,100,29.99,29.73,0,-999,0,0.00
2013-2-25,73,65,52,-100,-100,-100,0,0,100,29.72,29.45,0,-999,0,0.00
2013-2-26,61,53,46,-100,-100,-100,0,0,100,29.96,29.69,0,-999,0,0.00
2013-2-27,69,57,47,-100,-100,-100,0,0,100,30.13,29.95,0,-999,0,0.00
2013-2-28,53,48,41,-100,-100,-100,0,0,100,30.26,30.12,0,-999,0,0.00
2013-3-1,59,50,43,-100,-100,-100,0,0,100,30.25,30.13,0,-999,0,0.00
2013-3-2,50,44,37,-100,-100,-100,0,0,100,30.32,30.21,0,-999,0,0.00
2013-3-3,60,47,36,-100,-100,-100,0,0,100,30.32,30.10,0,-999,0,0.00
2013-3-4,71,62,47,-100,-100,-100,0,0,100,30.09,29.88,0,-999,0,0.00
2013-3-5,68,63,53,-100,-100,-100,0,0,100,30.30,29.88,0,-999,0,0.00
2013-3-6,64,52,42,-100,-100,-100,0,0,100,30.41,30.26,0,-999,0,0.00
2013-3-7,66,54,44,-100,-100,-100,0,0,100,30.36,30.24,0,-999,0,0.00
2013-3-8,70,58,46,-100,-100,-100,0,0,100,30.29,30.13,0,-999,0,0.00
2013-3-9,70,63,57,-100,-100,-100,0,0,100,30.13,29.88,0,-999,0,0.00
2013-3-10,72,62,55,-100,-100,-100,0,0,100,29.99,29.83,0,-999,0,0.00
2013-3-11,58,51,46,-100,-100,-100,0,0,100,30.11,29.98,0,-999,0,0.00
2013-3-12,70,55,40,-100,-100,-100,0,0,100,30.28,30.10,0,-999,0,0.00
2013-3-13,69,59,49,-100,-100,-100,0,0,100,30.46,30.28,0,-999,0,0.00
2013-3-14,69,57,44,-100,-100,-100,0,0,100,30.46,30.33,0,-999,0,0.00
2013-3-15,71,61,48,-100,-100,-100,0,0,100,30.33,30.14,0,-999,0,0.00
2013-3-16,73,65,58,-100,-100,-100,0,0,100,30.12,29.94,0,-999,0,0.00
2013-3-17,75,68,61,-100,-100,-100,0,0,100,29.95,29.79,0,-999,0,0.00
2013-3-18,80,71,67,-100,-100,-100,0,0,100,29.92,29.78,0,-999,0,0.00
2013-3-19,77,68,55,-100,-100,-100,0,0,100,30.03,29.93,0,-999,0,0.00
2013-3-20,72,63,52,-100,-100,-100,0,0,100,30.22,29.99,0,-999,0,0.00
2013-3-21,68,61,53,-100,-100,-100,0,0,100,30.08,29.81,0,-999,0,0.00
2013-3-22,79,69,60,-100,-100,-100,0,0,100,29.83,29.71,0,-999,0,0.00
2013-3-23,73,70,68,-100,-100,-100,0,0,100,29.80,29.59,0,-999,0,0.00
2013-3-24,69,60,48,-100,-100,-100,0,0,100,30.12,29.64,0,-999,0,0.00
2013-3-25,59,49,38,-100,-100,-100,0,0,100,30.35,30.13,0,-999,0,0.00
2013-3-26,58,48,38,-100,-100,-100,0,0,100,30.49,30.34,0,-999,0,0.00
2013-3-27,64,52,40,-100,-100,-100,0,0,100,30.45,30.27,0,-999,0,0.00
2013-3-28,70,58,47,-100,-100,-100,0,0,100,30.36,30.24,0,-999,0,0.00
2013-3-29,73,62,54,-100,-100,-100,0,0,100,30.30,30.18,0,-999,0,0.00
2013-3-30,73,66,60,-100,-100,-100,0,0,100,30.20,30.03,0,-999,0,0.00
2013-3-31,75,65,59,-100,-100,-100,0,0,100,30.03,29.90,0,-999,0,0.00
2013-4-1,79,67,57,-100,-100,-100,0,0,100,30.11,29.99,0,-999,0,0.00
2013-4-2,74,68,60,-100,-100,-100,0,0,100,30.08,29.90,0,-999,0,0.00
2013-4-3,69,55,49,-100,-100,-100,0,0,100,30.08,29.82,0,-999,0,0.00
2013-4-4,52,49,47,-100,-100,-100,0,0,100,30.16,30.02,0,-999,0,0.00
2013-4-5,73,58,46,-100,-100,-100,0,0,100,30.23,30.10,0,-999,0,0.00
2013-4-6,70,61,52,-100,-100,-100,0,0,100,30.15,30.03,0,-999,0,0.00
2013-4-7,76,67,60,-100,-100,-100,0,0,100,30.06,29.95,0,-999,0,0.00
2013-4-8,77,71,66,-100,-100,-100,0,0,100,29.96,29.88,0,-999,0,0.00
2013-4-9,78,72,67,-100,-100,-100,0,0,100,29.92,29.83,0,-999,0,0.00
2013-4-10,79,75,73,-100,-100,-100,0,0,100,29.87,29.77,0,-999,0,0.00
2013-4-11,73,55,47,-100,-100,-100,0,0,100,29.90,29.73,0,-999,0,0.00
2013-4-12,77,62,50,-100,-100,-100,0,0,100,30.04,29.90,0,-999,0,0.00
2013-4-13,78,68,54,-100,-100,-100,0,0,100,30.03,29.86,0,-999,0,0.00
2013-4-14,78,67,60,-100,-100,-100,0,0,100,29.84,29.73,0,-999,0,0.00
2013-4-15,83,73,63,-100,-100,-100,0,0,100,29.91,29.79,0,-999,0,0.00
2013-4-16,82,76,73,-100,-100,-100,0,0,100,30.03,29.90,0,-999,0,0.00
2013-4-17,82,77,74,-100,-100,-100,0,0,100,30.02,29.87,0,-999,0,0.00
2013-4-18,81,72,53,-100,-100,-100,0,0,100,30.02,29.74,0,-999,0,0.00
2013-4-19,63,54,46,-100,-100,-100,0,0,100,30.23,30.03,0,-999,0,0.00
2013-4-20,70,58,46,-100,-100,-100,0,0,100,30.29,30.12,0,-999,0,0.00
2013-4-21,74,62,50,-100,-100,-100,0,0,100,30.22,30.11,0,-999,0,0.00
2013-4-22,77,66,55,-100,-100,-100,0,0,100,30.15,30.00,0,-999,0,0.00
2013-4-23,81,71,62,-100,-100,-100,0,0,100,30.04,29.94,0,-999,0,0.00
2013-4-24,73,62,52,-100,-100,-100,0,0,100,30.24,29.94,0,-999,0,0.00
2013-4-25,73,62,53,-100,-100,-100,0,0,100,30.34,30.22,0,-999,0,0.00
2013-4-26,77,68,61,-100,-100,-100,0,0,100,30.26,30.16,0,-999,0,0.00
2013-4-27,77,73,69,-100,-100,-100,0,0,100,30.16,29.99,0,-999,0,0.00
2013-4-28,78,71,66,-100,-100,-100,0,0,100,30.05,29.93,0,-999,0,0.00
2013-4-29,81,71,63,-100,-100,-100,0,0,100,29.99,29.87,0,-999,0,0.00
2013-4-30,80,72,68,-100,-100,-100,0,0,100,29.89,29.81,0,-999,0,0.00
2013-5-1,81,73,67,-100,-100,-100,0,0,100,29.91,29.83,0,-999,0,0.00
2013-5-2,74,68,57,-100,-100,-100,0,0,100,30.08,29.90,0,-999,0,0.00
2013-5-3,64,55,47,-100,-100,-100,0,0,100,30.12,30.02,0,-999,0,0.00
2013-5-4,72,62,49,-100,-100,-100,0,0,100,30.09,29.88,0,-999,0,0.00
2013-5-5,66,59,50,-100,-100,-100,0,0,100,30.08,29.94,0,-999,0,0.00
2013-5-6,75,64,52,-100,-100,-100,0,0,100,30.10,29.97,0,-999,0,0.00
2013-5-7,80,71,64,-100,-100,-100,0,0,100,30.08,30.00,0,-999,0,0.00
2013-5-8,79,71,61,-100,-100,-100,0,0,100,30.12,30.03,0,-999,0,0.00
2013-5-9,78,72,66,-100,-100,-100,0,0,100,30.09,29.94,0,-999,0,0.00
2013-5-10,76,70,64,-100,-100,-100,0,0,100,30.08,29.86,0,-999,0,0.00
2013-5-11,81,72,65,-100,-100,-100,0,0,100,30.11,29.87,0,-999,0,0.00
2013-5-12,80,72,64,-100,-100,-100,0,0,100,30.20,30.09,0,-999,0,0.00
2013-5-13,80,68,57,-100,-100,-100,0,0,100,30.31,30.20,0,-999,0,0.00
2013-5-14,82,71,61,-100,-100,-100,0,0,100,30.28,30.17,0,-999,0,0.00
2013-5-15,79,71,65,-100,-100,-100,0,0,100,30.19,30.00,0,-999,0,0.00
2013-5-16,79,74,68,-100,-100,-100,0,0,100,30.01,29.90,0,-999,0,0.00
2013-5-17,83,76,72,-100,-100,-100,0,0,100,30.01,29.91,0,-999,0,0.00
2013-5-18,85,79,75,-100,-100,-100,0,0,100,30.03,29.96,0,-999,0,0.00
2013-5-19,85,79,75,-100,-100,-100,0,0,100,29.98,29.91,0,-999,0,0.00
2013-5-20,85,80,77,-100,-100,-100,0,0,100,29.97,29.86,0,-999,0,0.00
2013-5-21,85,80,76,-100,-100,-100,0,0,100,29.93,29.80,0,-999,0,0.00
2013-5-22,85,76,68,-100,-100,-100,0,0,100,29.96,29.82,0,-999,0,0.00
2013-5-23,86,80,74,-100,-100,-100,0,0,100,30.08,29.95,0,-999,0,0.00
2013-5-24,89,80,73,-100,-100,-100,0,0,100,30.17,30.04,0,-999,0,0.00
2013-5-25,86,79,73,-100,-100,-100,0,0,100,30.20,30.12,0,-999,0,0.00
2013-5-26,87,79,73,-100,-100,-100,0,0,100,30.15,30.08,0,-999,0,0.00
2013-5-27,85,79,72,-100,-100,-100,0,0,100,30.10,30.00,0,-999,0,0.00
2013-5-28,86,78,73,-100,-100,-100,0,0,100,30.04,29.96,0,-999,0,0.00
2013-5-29,86,79,72,-100,-100,-100,0,0,100,29.98,29.88,0,-999,0,0.00
2013-5-30,87,80,75,-100,-100,-100,0,0,100,29.96,29.88,0,-999,0,0.00
2013-5-31,87,80,77,-100,-100,-100,0,0,100,29.98,29.90,0,-999,0,0.00
2013-6-1,88,82,78,-100,-100,-100,0,0,100,29.95,29.89,0,-999,0,0.00
2013-6-2,82,77,69,-100,-100,-100,0,0,100,30.04,29.90,0,-999,0,0.00
2013-6-3,89,80,72,-100,-100,-100,0,0,100,29.96,29.85,0,-999,0,0.00
2013-6-4,93,83,73,-100,-100,-100,0,0,100,29.96,29.84,0,-999,0,0.00
2013-6-5,94,85,78,-100,-100,-100,0,0,100,29.92,29.79,0,-999,0,0.00
2013-6-6,85,77,68,-100,-100,-100,0,0,100,29.89,29.74,0,-999,0,0.00
2013-6-7,84,75,68,-100,-100,-100,0,0,100,29.94,29.86,0,-999,0,0.00
2013-6-8,87,77,71,-100,-100,-100,0,0,100,29.96,29.88,0,-999,0,0.00
2013-6-9,88,78,72,-100,-100,-100,0,0,100,29.99,29.89,0,-999,0,0.00
2013-6-10,90,80,72,-100,-100,-100,0,0,100,30.02,29.97,0,-999,0,0.00
2013-6-11,90,84,77,-100,-100,-100,0,0,100,30.09,30.01,0,-999,0,0.00
2013-6-12,90,83,77,-100,-100,-100,0,0,100,30.11,30.01,0,-999,0,0.00
2013-6-13,93,85,78,-100,-100,-100,0,0,100,30.09,29.93,0,-999,0,0.00
2013-6-14,94,85,74,-100,-100,-100,0,0,100,29.99,29.87,0,-999,0,0.00
2013-6-15,92,82,74,-100,-100,-100,0,0,100,30.01,29.93,0,-999,0,0.00
2013-6-16,91,84,80,-100,-100,-100,0,0,100,30.07,29.97,0,-999,0,0.00
2013-6-17,89,84,78,-100,-100,-100,0,0,100,30.03,29.93,0,-999,0,0.00
2013-6-18,88,81,74,-100,-100,-100,0,0,100,30.01,29.91,0,-999,0,0.00
2013-6-19,85,78,72,-100,-100,-100,0,0,100,30.04,29.96,0,-999,0,0.00
2013-6-20,90,81,76,-100,-100,-100,0,0,100,30.12,30.02,0,-999,0,0.00
2013-6-22,92,87,82,-100,-100,-100,0,0,100,30.11,29.99,0,-999,0,0.00
2013-6-23,89,83,76,-100,-100,-100,0,0,100,30.07,29.99,0,-999,0,0.00
2013-6-24,89,83,77,-100,-100,-100,0,0,100,30.12,30.04,0,-999,0,0.00
2013-6-25,90,83,76,-100,-100,-100,0,0,100,30.09,29.99,0,-999,0,0.00
2013-6-26,91,84,80,-100,-100,-100,0,0,100,30.06,29.97,0,-999,0,0.00
2013-6-27,93,84,78,-100,-100,-100,0,0,100,30.05,29.95,0,-999,0,0.00
2013-6-28,92,85,80,-100,-100,-100,0,0,100,29.99,29.81,0,-999,0,0.00
2013-6-29,96,87,81,-100,-100,-100,0,0,100,29.84,29.71,0,-999,0,0.00
2013-6-30,92,84,76,-100,-100,-100,0,0,100,29.85,29.78,0,-999,0,0.00
2013-7-1,85,80,71,-100,-100,-100,0,0,100,29.96,29.85,0,-999,0,0.00
2013-7-2,90,80,73,-100,-100,-100,0,0,100,30.02,29.95,0,-999,0,0.00
2013-7-3,91,82,72,-100,-100,-100,0,0,100,30.05,29.94,0,-999,0,0.00
2013-7-4,92,82,71,-100,-100,-100,0,0,100,30.00,29.93,0,-999,0,0.00
2013-7-5,93,81,73,-100,-100,-100,0,0,100,29.99,29.93,0,-999,0,0.00
2013-7-6,91,80,72,-100,-100,-100,0,0,100,29.99,29.91,0,-999,0,0.00
2013-7-7,88,80,76,-100,-100,-100,0,0,100,30.07,29.95,0,-999,0,0.00
2013-7-8,90,82,76,-100,-100,-100,0,0,100,30.15,30.05,0,-999,0,0.00
2013-7-9,92,83,78,-100,-100,-100,0,0,100,30.19,30.09,0,-999,0,0.00
2013-7-10,89,84,78,-100,-100,-100,0,0,100,30.12,29.99,0,-999,0,0.00
2013-7-11,91,84,79,-100,-100,-100,0,0,100,30.03,29.94,0,-999,0,0.00
2013-7-12,94,84,77,-100,-100,-100,0,0,100,29.99,29.88,0,-999,0,0.00
2013-7-13,93,84,76,-100,-100,-100,0,0,100,29.99,29.89,0,-999,0,0.00
2013-7-14,90,83,75,-100,-100,-100,0,0,100,29.99,29.92,0,-999,0,0.00
2013-7-15,88,81,77,-100,-100,-100,0,0,100,30.11,29.95,0,-999,0,0.00
2013-7-16,87,80,75,-100,-100,-100,0,0,100,30.16,30.07,0,-999,0,0.00
2013-7-17,91,80,76,-100,-100,-100,0,0,100,30.22,30.13,0,-999,0,0.00
2013-7-18,93,81,75,-100,-100,-100,0,0,100,30.17,30.03,0,-999,0,0.00
2013-7-19,87,77,73,-100,-100,-100,0,0,100,30.08,29.97,0,-999,0,0.00
2013-7-20,90,79,73,-100,-100,-100,0,0,100,30.02,29.91,0,-999,0,0.00
2013-7-21,84,79,74,-100,-100,-100,0,0,100,30.04,29.96,0,-999,0,0.00
2013-7-22,90,84,78,-100,-100,-100,0,0,100,30.07,30.00,0,-999,0,0.00
2013-7-23,90,84,80,-100,-100,-100,0,0,100,30.08,29.95,0,-999,0,0.00
2013-7-24,90,84,79,-100,-100,-100,0,0,100,30.03,29.91,0,-999,0,0.00
2013-7-25,93,85,81,-100,-100,-100,0,0,100,30.07,29.96,0,-999,0,0.00
2013-7-26,91,84,80,-100,-100,-100,0,0,100,30.08,29.96,0,-999,0,0.00
2013-7-27,87,84,80,-100,-100,-100,0,0,100,29.98,29.89,0,-999,0,0.00
2013-7-28,88,81,76,-100,-100,-100,0,0,100,30.03,29.93,0,-999,0,0.00
2013-7-29,91,84,77,-100,-100,-100,0,0,100,30.12,30.02,0,-999,0,0.00
2013-7-30,92,84,77,-100,-100,-100,0,0,100,30.16,30.10,0,-999,0,0.00
2013-7-31,92,84,79,-100,-100,-100,0,0,100,0.00,40.00,0,-999,0,0.00
2013-8-1,96,86,80,-100,-100,-100,0,0,100,0.00,40.00,0,-999,0,0.00
2013-8-2,95,86,81,-100,-100,-100,0,0,100,0.00,40.00,0,-999,0,0.00
2013-8-3,93,86,80,-100,-100,-100,0,0,100,0.00,40.00,0,-999,0,0.00
2013-8-4,91,85,81,-100,-100,-100,0,0,100,0.00,40.00,0,-999,0,0.00
2013-8-5,94,86,82,-100,-100,-100,0,0,100,29.97,29.97,0,-999,0,0.00
2013-8-6,94,86,81,-100,-100,-100,0,0,100,29.97,29.97,0,-999,0,0.00
2013-8-7,95,85,81,-100,-100,-100,0,0,100,30.00,29.90,0,-999,0,0.00
2013-8-8,93,84,77,-100,-100,-100,0,0,100,29.98,29.90,0,-999,0,0.00
2013-8-9,96,86,78,-100,-100,-100,0,0,100,30.02,29.91,0,-999,0,0.00
2013-8-10,91,80,76,-100,-100,-100,0,0,100,30.08,29.99,0,-999,0,0.00
2013-8-11,91,82,77,-100,-100,-100,0,0,100,30.10,30.04,0,-999,0,0.00
2013-8-12,89,82,78,-100,-100,-100,0,0,100,30.11,30.01,0,-999,0,0.00
2013-8-13,93,86,80,-100,-100,-100,0,0,100,30.03,29.93,0,-999,0,0.00
2013-8-14,83,79,76,-100,-100,-100,0,0,100,30.00,29.96,0,-999,0,0.00
2013-8-15,85,77,72,-100,-100,-100,0,0,100,30.02,29.95,0,-999,0,0.00
2013-8-16,91,82,73,-100,-100,-100,0,0,100,30.01,29.93,0,-999,0,0.00
2013-8-17,89,80,70,-100,-100,-100,0,0,100,29.99,29.93,0,-999,0,0.00
2013-8-18,90,81,73,-100,-100,-100,0,0,100,30.04,29.98,0,-999,0,0.00
2013-8-19,91,82,75,-100,-100,-100,0,0,100,30.07,29.97,0,-999,0,0.00
2013-8-20,81,77,74,-100,-100,-100,0,0,100,30.09,29.99,0,-999,0,0.00
2013-8-21,90,79,73,-100,-100,-100,0,0,100,30.12,30.04,0,-999,0,0.00
2013-8-22,94,81,76,-100,-100,-100,0,0,100,30.10,29.98,0,-999,0,0.00
2013-8-23,94,85,78,-100,-100,-100,0,0,100,30.03,29.91,0,-999,0,0.00
2013-8-24,91,81,76,-100,-100,-100,0,0,100,30.04,29.99,0,-999,0,0.00
2013-8-25,85,78,75,-100,-100,-100,0,0,100,30.14,30.05,0,-999,0,0.00
2013-8-26,82,77,75,-100,-100,-100,0,0,100,30.17,30.11,0,-999,0,0.00
2013-8-27,88,78,74,-100,-100,-100,0,0,100,30.14,30.09,0,-999,0,0.00
2013-8-28,93,88,81,-100,-100,-100,0,0,100,30.10,30.00,0,-999,0,0.00
2013-8-29,91,83,79,-100,-100,-100,0,0,100,30.08,30.03,0,-999,0,0.00
2013-8-30,90,84,78,-100,-100,-100,0,0,100,30.03,29.94,0,-999,0,0.00
2013-8-31,91,82,76,-100,-100,-100,0,0,100,30.00,29.90,0,-999,0,0.00
2013-9-1,92,85,77,-100,-100,-100,0,0,100,29.96,29.87,0,-999,0,0.00
2013-9-2,90,83,79,-100,-100,-100,0,0,100,30.00,29.89,0,-999,0,0.00
2013-9-3,93,85,79,-100,-100,-100,0,0,100,30.01,29.92,0,-999,0,0.00
2013-9-4,88,81,76,-100,-100,-100,0,0,100,30.07,29.96,0,-999,0,0.00
2013-9-5,89,81,77,-100,-100,-100,0,0,100,30.11,30.03,0,-999,0,0.00
2013-9-6,89,82,76,-100,-100,-100,0,0,100,30.11,30.01,0,-999,0,0.00
2013-9-7,90,80,77,-100,-100,-100,0,0,100,30.07,29.99,0,-999,0,0.00
2013-9-8,91,80,73,-100,-100,-100,0,0,100,30.01,29.95,0,-999,0,0.00
2013-9-9,90,82,74,-100,-100,-100,0,0,100,30.03,29.96,0,-999,0,0.00
2013-9-10,79,77,75,-100,-100,-100,0,0,100,30.09,30.01,0,-999,0,0.00
2013-9-11,92,82,76,-100,-100,-100,0,0,100,30.11,30.04,0,-999,0,0.00
2013-9-12,95,85,75,-100,-100,-100,0,0,100,30.06,29.93,0,-999,0,0.00
2013-9-13,96,81,76,-100,-100,-100,0,0,100,29.96,29.82,0,-999,0,0.00
2013-9-14,89,81,75,-100,-100,-100,0,0,100,29.97,29.88,0,-999,0,0.00
2013-9-15,92,81,74,-100,-100,-100,0,0,100,30.04,29.96,0,-999,0,0.00
2013-9-16,93,83,75,-100,-100,-100,0,0,100,30.07,29.99,0,-999,0,0.00
2013-9-17,93,84,75,-100,-100,-100,0,0,100,30.09,29.96,0,-999,0,0.00
2013-9-18,81,79,77,-100,-100,-100,0,0,100,30.02,29.99,0,-999,0,0.00
2013-9-19,89,80,76,-100,-100,-100,0,0,100,30.02,29.92,0,-999,0,0.00
2013-9-20,79,77,74,-100,-100,-100,0,0,100,29.95,29.78,0,-999,0,0.00
2013-9-21,75,73,71,-100,-100,-100,0,0,100,29.82,29.75,0,-999,0,0.00
2013-9-22,82,73,67,-100,-100,-100,0,0,100,29.86,29.77,0,-999,0,0.00
2013-9-23,87,77,67,-100,-100,-100,0,0,100,29.83,29.77,0,-999,0,0.00
2013-9-24,88,82,78,-100,-100,-100,0,0,100,29.86,29.80,0,-999,0,0.00
2013-9-25,91,79,73,-100,-100,-100,0,0,100,29.88,29.80,0,-999,0,0.00
2013-9-26,93,79,69,-100,-100,-100,0,0,100,29.96,29.84,0,-999,0,0.00
2013-9-27,88,80,71,-100,-100,-100,0,0,100,30.02,29.93,0,-999,0,0.00
2013-9-28,89,80,72,-100,-100,-100,0,0,100,30.05,29.97,0,-999,0,0.00
2013-9-29,83,77,73,-100,-100,-100,0,0,100,30.03,29.94,0,-999,0,0.00
2013-9-30,77,74,73,-100,-100,-100,0,0,100,29.95,29.86,0,-999,0,0.00
2013-10-1,81,77,75,-100,-100,-100,0,0,100,30.00,29.96,0,-999,0,0.00
2013-10-2,87,78,73,-100,-100,-100,0,0,100,30.04,29.95,0,-999,0,0.00
2013-10-3,88,80,74,-100,-100,-100,0,0,100,30.00,29.92,0,-999,0,0.00
2013-10-4,89,79,75,-100,-100,-100,0,0,100,29.99,29.92,0,-999,0,0.00
2013-10-5,88,79,74,-100,-100,-100,0,0,100,29.97,29.88,0,-999,0,0.00
2013-10-6,77,71,64,-100,-100,-100,0,0,100,30.05,29.90,0,-999,0,0.00
2013-10-7,76,67,57,-100,-100,-100,0,0,100,30.12,30.03,0,-999,0,0.00
2013-10-8,77,68,59,-100,-100,-100,0,0,100,30.12,30.02,0,-999,0,0.00
2013-10-9,84,71,58,-100,-100,-100,0,0,100,30.12,30.03,0,-999,0,0.00
2013-10-10,84,72,62,-100,-100,-100,0,0,100,30.11,30.00,0,-999,0,0.00
2013-10-11,86,76,66,-100,-100,-100,0,0,100,30.03,29.94,0,-999,0,0.00
2013-10-12,88,78,70,-100,-100,-100,0,0,100,30.13,29.97,0,-999,0,0.00
2013-10-13,82,74,69,-100,-100,-100,0,0,100,30.18,30.05,0,-999,0,0.00
2013-10-14,85,77,71,-100,-100,-100,0,0,100,30.13,30.01,0,-999,0,0.00
2013-10-15,85,78,71,-100,-100,-100,0,0,100,30.04,29.94,0,-999,0,0.00
2013-10-16,83,76,71,-100,-100,-100,0,0,100,29.99,29.91,0,-999,0,0.00
2013-10-17,71,67,62,-100,-100,-100,0,0,100,30.07,29.98,0,-999,0,0.00
2013-10-18,72,64,59,-100,-100,-100,0,0,100,30.06,29.93,0,-999,0,0.00
2013-10-19,65,62,57,-100,-100,-100,0,0,100,30.10,29.95,0,-999,0,0.00
2013-10-20,72,60,51,-100,-100,-100,0,0,100,30.12,29.99,0,-999,0,0.00
2013-10-21,72,64,58,-100,-100,-100,0,0,100,30.07,29.96,0,-999,0,0.00
2013-10-22,69,66,62,-100,-100,-100,0,0,100,30.09,29.98,0,-999,0,0.00
2013-10-23,77,66,55,-100,-100,-100,0,0,100,30.16,30.08,0,-999,0,0.00
2013-10-24,81,68,56,-100,-100,-100,0,0,100,30.24,30.14,0,-999,0,0.00
2013-10-25,71,63,56,-100,-100,-100,0,0,100,30.41,30.26,0,-999,0,0.00
2013-10-26,77,63,51,-100,-100,-100,0,0,100,30.31,30.16,0,-999,0,0.00
2013-10-27,74,66,61,-100,-100,-100,0,0,100,30.15,30.03,0,-999,0,0.00
2013-10-28,79,70,62,-100,-100,-100,0,0,100,30.18,30.06,0,-999,0,0.00
2013-10-29,81,72,66,-100,-100,-100,0,0,100,30.20,30.12,0,-999,0,0.00
2013-10-30,81,73,68,-100,-100,-100,0,0,100,30.15,29.96,0,-999,0,0.00
2013-10-31,78,71,64,-100,-100,-100,0,0,100,29.94,29.82,0,-999,0,0.00
2013-11-1,79,66,59,-100,-100,-100,0,0,100,29.98,29.87,0,-999,0,0.00
2013-11-2,70,64,58,-100,-100,-100,0,0,100,30.23,29.96,0,-999,0,0.00
2013-11-3,67,57,50,-100,-100,-100,0,0,100,30.27,30.14,0,-999,0,0.00
2013-11-4,76,64,53,-100,-100,-100,0,0,100,30.18,30.10,0,-999,0,0.00
2013-11-5,78,70,62,-100,-100,-100,0,0,100,30.14,30.05,0,-999,0,0.00
2013-11-6,79,70,58,-100,-100,-100,0,0,100,30.22,30.04,0,-999,0,0.00
2013-11-7,64,56,49,-100,-100,-100,0,0,100,30.37,30.22,0,-999,0,0.00
2013-11-8,64,56,47,-100,-100,-100,0,0,100,30.39,30.23,0,-999,0,0.00
2013-11-9,67,59,52,-100,-100,-100,0,0,100,30.26,30.18,0,-999,0,0.00
2013-11-10,73,62,53,-100,-100,-100,0,0,100,30.30,30.22,0,-999,0,0.00
2013-11-11,73,63,54,-100,-100,-100,0,0,100,30.28,30.17,0,-999,0,0.00
2013-11-12,71,56,42,-100,-100,-100,0,0,100,30.58,30.23,0,-999,0,0.00
2013-11-13,56,44,34,-100,-100,-100,0,0,100,30.62,30.45,0,-999,0,0.00
2013-11-14,61,50,37,-100,-100,-100,0,0,100,30.44,30.15,0,-999,0,0.00
2013-11-15,79,64,53,-100,-100,-100,0,0,100,30.14,29.96,0,-999,0,0.00
2013-11-16,78,70,64,-100,-100,-100,0,0,100,30.01,29.89,0,-999,0,0.00
2013-11-17,80,75,73,-100,-100,-100,0,0,100,29.97,29.87,0,-999,0,0.00
2013-11-18,75,71,61,-100,-100,-100,0,0,100,30.14,29.97,0,-999,0,0.00
2013-11-19,67,59,53,-100,-100,-100,0,0,100,30.21,30.08,0,-999,0,0.00
2013-11-20,74,59,46,-100,-100,-100,0,0,100,30.12,30.00,0,-999,0,0.00
2013-11-21,77,67,59,-100,-100,-100,0,0,100,30.17,30.06,0,-999,0,0.00
2013-11-22,73,69,59,-100,-100,-100,0,0,100,30.23,30.13,0,-999,0,0.00
2013-11-23,60,52,46,-100,-100,-100,0,0,100,30.40,30.21,0,-999,0,0.00
2013-11-24,51,44,39,-100,-100,-100,0,0,100,30.45,30.31,0,-999,0,0.00
2013-11-25,42,40,38,-100,-100,-100,0,0,100,30.33,29.98,0,-999,0,0.00
2013-11-26,42,41,40,-100,-100,-100,0,0,100,30.21,29.92,0,-999,0,0.00
2013-11-27,48,41,36,-100,-100,-100,0,0,100,30.45,30.22,0,-999,0,0.00
2013-11-28,49,40,32,-100,-100,-100,0,0,100,30.54,30.42,0,-999,0,0.00
2013-11-29,61,44,33,-100,-100,-100,0,0,100,30.55,30.43,0,-999,0,0.00
2013-11-30,69,49,36,-100,-100,-100,0,0,100,30.46,30.27,0,-999,0,0.00
2013-12-1,68,55,42,-100,-100,-100,0,0,100,30.28,30.01,0,-999,0,0.00
2013-12-2,74,66,62,-100,-100,-100,0,0,100,30.00,29.74,0,-999,0,0.00
2013-12-3,75,69,64,-100,-100,-100,0,0,100,29.80,29.70,0,-999,0,0.00
2013-12-4,77,72,69,-100,-100,-100,0,0,100,29.89,29.78,0,-999,0,0.00
2013-12-5,78,70,54,-100,-100,-100,0,0,100,30.00,29.88,0,-999,0,0.00
2013-12-6,54,45,39,-100,-100,-100,0,0,100,30.32,29.96,0,-999,0,0.00
2013-12-7,39,36,34,-100,-100,-100,0,0,100,30.40,30.29,0,-999,0,0.00
2013-12-8,45,39,34,-100,-100,-100,0,0,100,30.29,30.09,0,-999,0,0.00
2013-12-9,46,44,40,-100,-100,-100,0,0,100,30.24,30.08,0,-999,0,0.00
2013-12-10,49,41,37,-100,-100,-100,0,0,100,30.44,30.26,0,-999,0,0.00
2013-12-11,47,42,36,-100,-100,-100,0,0,100,30.51,30.38,0,-999,0,0.00
2013-12-12,53,44,36,-100,-100,-100,0,0,100,30.57,30.39,0,-999,0,0.00
2013-12-13,63,50,41,-100,-100,-100,0,0,100,30.38,29.92,0,-999,0,0.00
2013-12-14,65,57,47,-100,-100,-100,0,0,100,30.22,29.87,0,-999,0,0.00
2013-12-15,53,45,39,-100,-100,-100,0,0,100,30.36,30.24,0,-999,0,0.00
2013-12-16,60,46,35,-100,-100,-100,0,0,100,30.37,30.27,0,-999,0,0.00
2013-12-17,70,52,37,-100,-100,-100,0,0,100,30.37,30.27,0,-999,0,0.00
2013-12-18,68,51,40,-100,-100,-100,0,0,100,30.37,30.21,0,-999,0,0.00
2013-12-19,72,64,51,-100,-100,-100,0,0,100,30.16,29.98,0,-999,0,0.00
2013-12-20,75,71,67,-100,-100,-100,0,0,100,30.01,29.89,0,-999,0,0.00
2013-12-21,74,69,60,-100,-100,-100,0,0,100,29.86,29.64,0,-999,0,0.00
2013-12-22,63,57,43,-100,-100,-100,0,0,100,30.30,29.84,0,-999,0,0.00
2013-12-23,50,42,37,-100,-100,-100,0,0,100,30.54,30.30,0,-999,0,0.00
2013-12-24,56,42,32,-100,-100,-100,0,0,100,30.60,30.38,0,-999,0,0.00
2013-12-25,54,45,36,-100,-100,-100,0,0,100,30.44,30.34,0,-999,0,0.00
2013-12-26,61,50,40,-100,-100,-100,0,0,100,30.44,30.31,0,-999,0,0.00
2013-12-27,52,49,45,-100,-100,-100,0,0,100,30.46,30.36,0,-999,0,0.00
2013-12-28,52,48,44,-100,-100,-100,0,0,100,30.31,30.06,0,-999,0,0.00
2013-12-29,63,50,37,-100,-100,-100,0,0,100,30.18,30.05,0,-999,0,0.00
2013-12-30,51,47,42,-100,-100,-100,0,0,100,30.39,30.15,0,-999,0,0.00
2013-12-31,49,44,40,-100,-100,-100,0,0,100,30.44,30.31,0,-999,0,0.00
2014-1-1,58,51,44,-100,-100,-100,0,0,100,30.31,30.07,0,-999,0,0.00
2014-1-2,57,49,40,-100,-100,-100,0,0,100,30.44,30.05,0,-999,0,0.00